Millington, NJ

10:23 PM EDT on July 30, 2015 (GMT -0400)
Shalebrook Drive, Morristown, NJ | | Change Station
CLOSE
Current Station
Personal Weather Station
Location: Harding Township, NJ
Elevation: 561 ft
Nearby Weather Stations

Elev 561 ft 40.74 °N, 74.54 °W | Updated 3 minutes ago

Partly Cloudy
Partly Cloudy
74.1 °F
Feels Like 72 °F
N
0.4
Wind Variable Wind from NNE
Gusts 2.9 mph

Today
High -- | Low -- °F
--% Chance of Precip.
Yesterday
High -- | Low -- °F
Precip. -- in
5:52 AM 8:15 PM
Full, 100% visible
Pressure 29.83 in
Visibility 0.8 miles
Clouds
Heat Index 72 °F
Dew Point 71 °F
Humidity 90%
Rainfall 0.07 in
Snow Depth Not available.
UV Not available.
Pollen 7.00 out of 12
Air Quality Not available.
Flu Activity Not available.
SPECI KSMQ 310214Z AUTO 00000KT 3/4SM BR VV006 23/22 A2983 RMK AO2 T02280217

More Conditions Fewer Conditions

Pressure 29.83 in
Visibility 0.8 miles
Clouds
Heat Index 72 °F
Dew Point 71 °F
Humidity 90%
Rainfall 0.07 in
Snow Depth Not available.
UV Not available.
Pollen 7.00 out of 12
Air Quality Not available.
Flu Activity Not available.
SPECI KSMQ 310214Z AUTO 00000KT 3/4SM BR VV006 23/22 A2983 RMK AO2 T02280217

More Conditions Fewer Conditions

10-Day Weather Forecast

×

Almanac

Astronomy

Jul. 30, 2015 Rise Set
Actual Time
Civil Twilight
Nautical Twilight
Astronomical Twilight
Moon
Length of Visible Light
Length of Day
Tomorrow will be .
, % of the Moon is Illuminated

Today's Extremes

State Highs State Lows

Community

WunderPhotos

Upload Photos

1,842,584 photos uploaded!

WunderBlogs® & News

Nearby

Air Quality

  Air Quality AQ Index Pollutant
Not available.

Snow Depth

Station Depth Elevation

Earthquake Activity

City Distance Mag. Time & Date
Minimum magnitude displayed is 2.5.

Coastal Water Temperatures

Place Temperature

Stations

Nearby Weather Stations

Station Location Temp. Windchill Dew Point Humidity Wind Precip. Elev Updated Type